Cumberland House, Canada
Current Conditions -  °F | °C
As of 11:55 AM on Sunday 21 Dec 2014 (Local Time) from CYQD Reporting Station
Overcast Overcast  
Wind Chill: 14°   Ceiling: 700
Heat Index: 23°   Visibility: 8mi
Dew Point: 21°   Wind: 8mph
Humidity: 93%   Direction: 110°ESE
Pressure: 29.57"   Gusts: NA
Location:  53.95°N, 102.27°W
Report Text: CYQD 211755Z 11007KT 8SM OVC007 M05/M06 A2957 RMK ST8 SLP031
Loading
Personal Weather Stations






























Interactive Weather Map New forecast layout! Learn more

10-Day Weather Forecast

Advertisements
Track Severe Weather on mobile